Time;durP1;ratioP1;P1;durP2;ratioP2;P2;SDS_P1;SDS_P2;PMS_P1;PMS_P2;Temp;Humidity;BMP_temperature;BMP_pressure;BME280_temperature;BME280_humidity;BME280_pressure;Samples;Min_cycle;Max_cycle;Signal;HPM_P1;HPM_P2
2021/08/27 00:00:10;;;;;;;2.20;1.87;;;11.10;99.90;11.20;96337.00;;;;5091474;28;20450;-74
2021/08/27 00:02:59;;;;;;;2.83;2.03;;;11.20;99.90;11.10;96322.00;;;;5083581;28;20486;-74
2021/08/27 00:05:49;;;;;;;2.08;1.88;;;12.70;99.90;10.80;96318.00;;;;5062454;28;20388;-74
2021/08/27 00:08:38;;;;;;;2.45;2.25;;;11.10;99.90;10.70;96327.00;;;;5084069;28;20392;-74
2021/08/27 00:11:29;;;;;;;2.70;2.13;;;11.00;99.90;10.60;96341.00;;;;5084372;28;20422;-73
2021/08/27 00:14:18;;;;;;;2.25;2.00;;;11.00;99.90;10.50;96340.00;;;;5084610;28;20378;-74
2021/08/27 00:17:07;;;;;;;2.72;1.90;;;10.90;99.90;10.40;96342.00;;;;5085030;28;20390;-73
2021/08/27 00:19:57;;;;;;;2.30;1.92;;;10.80;99.90;10.30;96335.00;;;;5083557;28;20474;-73
2021/08/27 00:23:10;;;;;;;3.23;2.30;;;10.70;99.90;10.40;96327.00;;;;5084473;28;20524;-74
2021/08/27 00:26:00;;;;;;;2.45;2.25;;;10.70;99.90;10.40;96333.00;;;;5084620;28;20416;-74
2021/08/27 00:28:51;;;;;;;3.40;2.75;;;10.70;99.90;10.40;96331.00;;;;5083554;28;20460;-74
2021/08/27 00:31:42;;;;;;;2.97;2.53;;;10.60;99.90;10.40;96322.00;;;;5083417;28;20650;-74
2021/08/27 00:34:31;;;;;;;3.08;2.60;;;10.60;99.90;10.00;96310.00;;;;5085180;28;20821;-74
2021/08/27 00:37:21;;;;;;;2.80;2.45;;;10.50;99.90;9.80;96305.00;;;;5077495;28;20426;-74
2021/08/27 00:40:10;;;;;;;4.53;2.67;;;10.40;99.90;10.00;96297.00;;;;5085247;28;20458;-74
2021/08/27 00:43:00;;;;;;;3.50;3.20;;;10.30;99.90;10.00;96316.00;;;;5084762;28;20449;-73
2021/08/27 00:45:50;;;;;;;2.97;2.40;;;10.30;99.90;9.80;96297.00;;;;5082110;28;21217;-73
2021/08/27 00:49:04;;;;;;;2.55;2.00;;;10.20;99.90;9.80;96313.00;;;;5080794;28;20482;-74
2021/08/27 00:52:17;;;;;;;3.30;2.40;;;10.10;99.90;9.80;96320.00;;;;5082641;28;20405;-73
2021/08/27 00:55:30;;;;;;;2.90;2.47;;;10.10;99.90;9.90;96327.00;;;;5083044;28;20394;-74
2021/08/27 00:58:19;;;;;;;3.53;2.88;;;10.00;99.90;9.90;96323.00;;;;5077469;28;20389;-74
2021/08/27 01:01:09;;;;;;;3.40;2.05;;;10.10;99.90;9.60;96337.00;;;;5081163;28;20402;-74
2021/08/27 01:04:01;;;;;;;4.78;2.35;;;10.00;99.90;9.70;96344.00;;;;5082970;28;20446;-74
2021/08/27 01:06:58;;;;;;;3.17;2.45;;;9.90;99.90;9.70;96363.00;;;;5082446;28;20388;-74
2021/08/27 01:09:54;;;;;;;3.33;2.63;;;9.90;99.90;9.80;96352.00;;;;5090033;28;20384;-74
2021/08/27 01:12:55;;;;;;;2.97;2.60;;;9.90;99.90;9.80;96358.00;;;;5103732;28;20451;-75
2021/08/27 01:15:53;;;;;;;3.97;2.60;;;9.90;99.90;9.90;96362.00;;;;5104155;28;20464;-74
2021/08/27 01:18:52;;;;;;;3.25;2.95;;;9.90;99.90;9.90;96367.00;;;;5095684;28;20498;-74
2021/08/27 01:22:05;;;;;;;3.80;2.92;;;9.90;99.90;10.00;96371.00;;;;5083870;28;20446;-74
2021/08/27 01:24:56;;;;;;;3.10;2.80;;;10.00;99.90;9.80;96368.00;;;;5083765;28;20449;-74
2021/08/27 01:27:46;;;;;;;2.40;2.20;;;10.00;99.90;9.80;96372.00;;;;5090091;28;20468;-74
2021/08/27 01:30:45;;;;;;;3.03;2.50;;;10.00;99.90;9.60;96376.00;;;;5087768;28;20378;-74
2021/08/27 01:33:36;;;;;;;2.83;2.40;;;9.90;99.90;9.60;96373.00;;;;5083032;28;20834;-74
2021/08/27 01:36:27;;;;;;;2.70;2.22;;;9.90;99.90;9.40;96370.00;;;;5080077;28;20466;-74
2021/08/27 01:39:18;;;;;;;3.15;2.05;;;9.80;99.90;9.10;96368.00;;;;5093292;28;20606;-74
2021/08/27 01:42:11;;;;;;;2.78;2.38;;;9.70;99.90;9.20;96380.00;;;;5102808;28;20472;-74
2021/08/27 01:45:01;;;;;;;4.55;2.75;;;9.60;99.90;9.30;96387.00;;;;5106291;28;20396;-73
2021/08/27 01:47:50;;;;;;;4.10;2.92;;;9.60;99.90;9.30;96386.00;;;;5105894;28;20389;-74
2021/08/27 01:50:42;;;;;;;2.88;2.55;;;9.60;99.90;9.50;96385.00;;;;5107833;28;20381;-74
2021/08/27 01:53:34;;;;;;;2.90;2.53;;;9.60;99.90;9.70;96385.00;;;;5094697;28;20907;-74
2021/08/27 01:56:23;;;;;;;4.80;3.33;;;9.70;99.90;9.80;96388.00;;;;5106593;28;20380;-74
2021/08/27 01:59:13;;;;;;;4.83;3.70;;;9.80;99.90;10.00;96370.00;;;;5106186;28;20404;-74
2021/08/27 02:02:04;;;;;;;4.68;3.65;;;9.80;99.90;10.10;96367.00;;;;5106716;28;20387;-74
2021/08/27 02:05:01;;;;;;;3.35;2.75;;;9.90;99.90;9.80;96364.00;;;;5107715;28;20440;-73
2021/08/27 02:07:51;;;;;;;7.13;3.40;;;10.00;99.90;9.90;96354.00;;;;5083619;28;20491;-73
2021/08/27 02:10:43;;;;;;;3.43;3.07;;;10.00;99.90;10.10;96327.00;;;;5083163;28;20469;-73
2021/08/27 02:13:32;;;;;;;4.30;3.20;;;10.00;99.90;10.10;96320.00;;;;5086394;28;20458;-74
2021/08/27 02:16:22;;;;;;;3.72;3.00;;;10.10;99.90;10.10;96324.00;;;;5085553;28;20394;-73
2021/08/27 02:19:12;;;;;;;3.40;2.75;;;10.10;99.90;10.00;96316.00;;;;5084844;28;20464;-73
2021/08/27 02:22:04;;;;;;;3.22;2.78;;;10.10;99.90;9.90;96313.00;;;;5086847;28;20426;-73
2021/08/27 02:24:59;;;;;;;3.50;2.85;;;10.10;99.90;9.60;96313.00;;;;5087294;28;20446;-73
2021/08/27 02:28:14;;;;;;;3.95;3.03;;;10.00;99.90;9.50;96309.00;;;;5099967;28;20962;-73
2021/08/27 02:31:06;;;;;;;4.18;3.33;;;9.90;99.90;9.60;96300.00;;;;5106315;28;20453;-73
2021/08/27 02:33:56;;;;;;;4.32;3.10;;;9.80;99.90;9.50;96297.00;;;;5104564;28;20388;-73
2021/08/27 02:36:50;;;;;;;4.72;3.47;;;9.80;99.90;9.70;96293.00;;;;5106061;28;20748;-74
2021/08/27 02:39:39;;;;;;;4.40;3.50;;;9.80;99.90;9.70;96282.00;;;;5106835;28;20385;-74
2021/08/27 02:42:31;;;;;;;4.45;4.05;;;9.80;99.90;9.60;96286.00;;;;5098517;28;20891;-73
2021/08/27 02:45:21;;;;;;;4.43;3.28;;;9.80;99.90;9.60;96293.00;;;;5106120;28;20396;-74
2021/08/27 02:48:10;;;;;;;3.20;2.90;;;9.80;99.90;9.60;96295.00;;;;5105179;28;20384;-74
2021/08/27 02:51:06;;;;;;;4.45;2.97;;;9.70;99.90;9.20;96292.00;;;;5101229;28;20400;-73
2021/08/27 02:53:58;;;;;;;3.70;3.30;;;9.70;99.90;9.10;96282.00;;;;5085919;28;20390;-73
2021/08/27 02:56:50;;;;;;;4.47;3.60;;;9.60;99.90;9.20;96273.00;;;;5085266;28;20393;-73
2021/08/27 02:59:44;;;;;;;7.25;4.10;;;9.50;99.90;9.20;96268.00;;;;5084756;28;20382;-73
2021/08/27 03:02:35;;;;;;;4.78;3.60;;;9.50;99.90;9.30;96276.00;;;;5082669;28;20475;-72
2021/08/27 03:05:28;;;;;;;3.80;3.40;;;9.50;99.90;9.30;96271.00;;;;5101439;28;20388;-72
2021/08/27 03:08:22;;;;;;;4.18;3.72;;;9.40;99.90;9.20;96272.00;;;;5084817;28;20400;-72
2021/08/27 03:11:16;;;;;;;4.78;3.70;;;9.50;99.90;9.00;96267.00;;;;5105290;28;20475;-72
2021/08/27 03:14:09;;;;;;;4.07;3.50;;;9.30;99.90;9.10;96263.00;;;;5105036;28;20387;-72
2021/08/27 03:17:03;;;;;;;4.47;3.37;;;9.30;99.90;9.10;96269.00;;;;5092815;28;20475;-73
2021/08/27 03:19:59;;;;;;;5.00;4.15;;;9.30;99.90;9.20;96264.00;;;;5096923;28;20822;-73
2021/08/27 03:23:14;;;;;;;4.82;3.70;;;9.40;99.90;9.30;96282.00;;;;5101875;28;20434;-73
2021/08/27 03:26:31;;;;;;;3.58;3.05;;;9.40;99.90;8.90;96273.00;;;;5096888;28;21129;-72
2021/08/27 03:29:22;;;;;;;5.05;3.78;;;9.30;99.90;8.80;96284.00;;;;5093948;28;20803;-73
2021/08/27 03:32:13;;;;;;;4.60;3.77;;;9.30;99.90;8.90;96299.00;;;;5088247;28;20454;-73
2021/08/27 03:35:07;;;;;;;4.38;3.72;;;9.20;99.90;9.10;96294.00;;;;5084006;28;20386;-73
2021/08/27 03:37:57;;;;;;;4.55;3.83;;;9.20;99.90;9.10;96285.00;;;;5084524;28;20398;-73
2021/08/27 03:40:50;;;;;;;6.47;4.00;;;9.20;99.90;9.10;96291.00;;;;5082991;28;20413;-73
2021/08/27 03:43:42;;;;;;;5.18;2.97;;;9.30;99.90;8.80;96291.00;;;;5093524;28;20391;-73
2021/08/27 03:46:32;;;;;;;3.72;3.20;;;9.20;99.90;9.00;96294.00;;;;5105464;28;20393;-73
2021/08/27 03:49:25;;;;;;;3.33;2.60;;;9.20;99.90;8.90;96296.00;;;;5105106;28;20377;-73
2021/08/27 03:52:16;;;;;;;3.83;3.42;;;9.10;99.90;8.90;96302.00;;;;5098434;28;20380;-73
2021/08/27 03:55:06;;;;;;;4.90;3.47;;;9.10;99.90;8.70;96297.00;;;;5083831;28;20379;-70
2021/08/27 03:57:57;;;;;;;5.65;2.95;;;9.10;99.90;8.50;96305.00;;;;5083644;28;20393;-71
2021/08/27 04:00:58;;;;;;;3.95;3.10;;;9.00;99.90;8.60;96312.00;;;;5078560;28;20909;-72
2021/08/27 04:03:47;;;;;;;5.70;3.85;;;9.00;99.90;8.70;96304.00;;;;5096589;28;20385;-72
2021/08/27 04:07:03;;;;;;;4.57;3.88;;;8.90;99.90;8.80;96315.00;;;;5080392;28;20391;-71
2021/08/27 04:09:55;;;;;;;5.18;3.40;;;8.90;99.90;8.90;96320.00;;;;5091086;28;20385;-72
2021/08/27 04:12:45;;;;;;;4.93;3.72;;;9.00;99.90;8.90;96324.00;;;;5104449;28;20391;-72
2021/08/27 04:15:34;;;;;;;3.67;3.03;;;9.00;99.90;8.70;96322.00;;;;5105637;28;20385;-72
2021/08/27 04:18:24;;;;;;;4.60;3.90;;;9.00;99.90;8.60;96335.00;;;;5083051;28;20913;-72
2021/08/27 04:21:13;;;;;;;3.95;3.50;;;9.00;99.90;8.30;96319.00;;;;5084077;28;20390;-71
2021/08/27 04:24:25;;;;;;;3.95;3.42;;;8.90;99.90;8.70;96321.00;;;;5083048;28;20434;-72
2021/08/27 04:27:16;;;;;;;5.43;4.15;;;8.90;99.90;8.90;96340.00;;;;5084781;28;20390;-72
2021/08/27 04:30:06;;;;;;;3.70;3.30;;;8.90;99.90;9.00;96330.00;;;;5086697;28;20206;-72
2021/08/27 04:32:55;;;;;;;2.70;2.43;;;9.00;99.90;8.50;96341.00;;;;5077191;28;20223;-72
2021/08/27 04:36:09;;;;;;;4.90;4.00;;;9.00;99.90;8.70;96338.00;;;;5064171;28;20218;-73
2021/08/27 04:39:00;;;;;;;4.00;3.60;;;8.90;99.90;8.80;96342.00;;;;5084870;28;20202;-73
2021/08/27 04:41:48;;;;;;;3.70;2.50;;;9.00;99.90;9.10;96353.00;;;;5080299;28;20249;-73
2021/08/27 04:44:40;;;;;;;5.20;2.90;;;9.00;99.90;9.20;96346.00;;;;5084636;28;20203;-72
2021/08/27 04:47:28;;;;;;;4.53;2.57;;;9.10;99.90;9.10;96345.00;;;;5085556;28;20281;-72
2021/08/27 04:50:17;;;;;;;3.67;2.83;;;9.00;99.90;9.10;96349.00;;;;5085789;28;20207;-72
2021/08/27 04:53:06;;;;;;;3.53;2.93;;;9.20;99.90;9.10;96343.00;;;;5079885;28;20212;-72
2021/08/27 04:55:56;;;;;;;4.10;3.30;;;8.30;99.90;8.90;96355.00;;;;5084609;28;20588;-72
2021/08/27 04:58:45;;;;;;;3.90;3.37;;;9.20;99.90;8.90;96353.00;;;;5084834;28;20198;-71
2021/08/27 05:01:35;;;;;;;3.87;3.30;;;9.20;99.90;9.10;96358.00;;;;5084126;28;20223;-72
2021/08/27 05:04:24;;;;;;;5.37;2.97;;;9.20;99.90;9.40;96365.00;;;;5084323;28;20566;-72
2021/08/27 05:07:15;;;;;;;5.50;2.97;;;9.30;99.90;9.60;96359.00;;;;5084031;28;20221;-72
2021/08/27 05:10:06;;;;;;;4.80;3.63;;;9.40;99.90;9.80;96367.00;;;;5093992;28;20195;-71
2021/08/27 05:12:58;;;;;;;7.13;4.23;;;9.50;99.90;9.90;96367.00;;;;5086810;28;20222;-72
2021/08/27 05:15:47;;;;;;;5.07;3.80;;;9.60;99.90;9.90;96384.00;;;;5103716;28;20205;-72
2021/08/27 05:18:37;;;;;;;4.87;3.43;;;9.70;99.90;9.70;96367.00;;;;5109514;28;20201;-72
2021/08/27 05:21:26;;;;;;;5.70;3.43;;;9.80;99.90;9.60;96374.00;;;;5102717;28;20227;-72
2021/08/27 05:24:16;;;;;;;7.40;2.87;;;9.80;99.90;9.60;96375.00;;;;5091331;28;20207;-72
2021/08/27 05:27:06;;;;;;;7.47;3.40;;;9.80;99.90;9.90;96376.00;;;;5088171;28;20195;-72
2021/08/27 05:29:58;;;;;;;3.43;2.90;;;9.80;99.90;9.80;96367.00;;;;5084766;28;20210;-72
2021/08/27 05:32:48;;;;;;;5.50;3.63;;;9.90;99.90;9.80;96370.00;;;;5087665;28;20223;-71
2021/08/27 05:35:39;;;;;;;5.23;3.60;;;9.90;99.90;9.90;96380.00;;;;5084697;28;20207;-71
2021/08/27 05:38:28;;;;;;;3.60;3.30;;;10.00;99.90;10.00;96370.00;;;;5088825;28;20246;-72
2021/08/27 05:41:17;;;;;;;4.77;2.87;;;10.00;99.90;9.90;96384.00;;;;5082676;28;20223;-71
2021/08/27 05:44:06;;;;;;;8.20;4.07;;;10.10;99.90;10.00;96373.00;;;;5089818;28;20588;-71
2021/08/27 05:46:55;;;;;;;3.90;3.53;;;10.10;99.90;10.10;96376.00;;;;5104494;28;20222;-72
2021/08/27 05:49:44;;;;;;;4.57;3.70;;;10.20;99.90;10.20;96374.00;;;;5108269;28;20206;-72
2021/08/27 05:52:35;;;;;;;5.47;3.60;;;10.30;99.90;10.20;96374.00;;;;5091848;28;20227;-71
2021/08/27 05:55:24;;;;;;;4.00;3.40;;;10.30;99.90;10.30;96377.00;;;;5128672;27;20699;-72
2021/08/27 05:58:13;;;;;;;4.67;3.67;;;10.30;99.90;10.40;96363.00;;;;5127550;27;20202;-72
2021/08/27 06:01:02;;;;;;;4.80;4.33;;;10.40;99.90;10.40;96366.00;;;;5129460;27;20217;-72
2021/08/27 06:03:53;;;;;;;5.53;4.53;;;10.50;99.90;10.40;96367.00;;;;5107999;28;20190;-73
2021/08/27 06:06:43;;;;;;;5.70;4.67;;;10.50;99.90;10.50;96355.00;;;;5116121;27;20206;-72
2021/08/27 06:09:37;;;;;;;6.17;4.40;;;10.50;99.90;10.80;96356.00;;;;5098186;28;20569;-72
2021/08/27 06:12:26;;;;;;;10.83;5.63;;;10.70;99.90;11.10;96339.00;;;;5086837;28;20223;-72
2021/08/27 06:15:17;;;;;;;10.73;6.30;;;10.80;99.90;11.00;96350.00;;;;5087411;28;20210;-71
2021/08/27 06:18:06;;;;;;;8.57;6.47;;;11.00;99.90;11.30;96352.00;;;;5089023;28;20202;-72
2021/08/27 06:20:58;;;;;;;9.37;6.00;;;11.10;99.90;11.70;96338.00;;;;5107875;28;20634;-71
2021/08/27 06:23:47;;;;;;;7.77;5.70;;;11.30;99.90;11.60;96339.00;;;;5107042;28;20223;-71
2021/08/27 06:27:04;;;;;;;6.47;5.27;;;11.60;99.90;11.90;96342.00;;;;5107277;28;20202;-72
2021/08/27 06:29:53;;;;;;;6.67;6.00;;;11.70;99.90;12.10;96348.00;;;;5107299;28;20600;-72
2021/08/27 06:32:42;;;;;;;7.07;5.60;;;11.90;99.90;12.10;96348.00;;;;5089842;28;20215;-72
2021/08/27 06:35:32;;;;;;;7.70;6.53;;;12.00;99.90;12.00;96357.00;;;;5104483;28;20684;-72
2021/08/27 06:38:25;;;;;;;7.07;5.53;;;12.10;99.90;11.80;96356.00;;;;5108954;28;20201;-72
2021/08/27 06:41:18;;;;;;;9.03;7.23;;;12.10;99.90;12.30;96352.00;;;;5107671;28;20229;-72
2021/08/27 06:44:09;;;;;;;8.97;8.07;;;12.20;99.90;12.80;96361.00;;;;5107702;28;20198;-72
2021/08/27 06:46:58;;;;;;;10.20;7.40;;;12.30;99.90;13.10;96376.00;;;;5106211;28;20678;-72
2021/08/27 06:49:47;;;;;;;9.30;6.93;;;12.50;99.90;13.30;96370.00;;;;5096696;28;20203;-72
2021/08/27 06:52:38;;;;;;;10.37;8.07;;;12.70;99.90;13.30;96361.00;;;;5064866;28;20227;-72
2021/08/27 06:55:27;;;;;;;9.87;7.67;;;12.80;99.90;13.30;96367.00;;;;5060396;28;20694;-72
2021/08/27 06:58:16;;;;;;;9.43;7.30;;;12.90;99.90;13.30;96367.00;;;;5065023;28;20200;-73
2021/08/27 07:01:07;;;;;;;11.50;7.30;;;13.00;99.90;13.40;96364.00;;;;5068758;28;20573;-72
2021/08/27 07:03:57;;;;;;;10.33;7.47;;;13.10;99.90;13.50;96365.00;;;;5067177;28;20231;-73
2021/08/27 07:06:47;;;;;;;8.80;6.50;;;13.10;99.90;13.60;96377.00;;;;5063768;28;20196;-73
2021/08/27 07:09:40;;;;;;;8.00;7.13;;;13.20;99.90;13.80;96371.00;;;;5063522;28;20210;-72
2021/08/27 07:12:29;;;;;;;8.20;6.83;;;13.30;99.90;14.00;96370.00;;;;5065695;28;20231;-73
2021/08/27 07:15:19;;;;;;;7.93;6.03;;;13.50;99.90;14.10;96376.00;;;;5066411;28;20204;-73
2021/08/27 07:18:10;;;;;;;9.37;6.30;;;13.60;99.90;14.40;96375.00;;;;5064958;28;20200;-73
2021/08/27 07:20:59;;;;;;;9.47;6.20;;;13.80;99.90;14.50;96376.00;;;;5064539;28;20897;-73
2021/08/27 07:23:48;;;;;;;6.97;5.63;;;13.90;99.90;14.70;96385.00;;;;5065760;28;20763;-72
2021/08/27 07:26:37;;;;;;;7.87;6.60;;;14.10;99.90;14.90;96383.00;;;;5069924;28;20199;-72
2021/08/27 07:29:26;;;;;;;9.57;6.53;;;14.20;99.90;15.00;96393.00;;;;5069820;28;20203;-72
2021/08/27 07:32:15;;;;;;;5.87;5.20;;;14.40;99.90;15.10;96393.00;;;;5064950;28;20219;-72
2021/08/27 07:35:07;;;;;;;10.33;6.30;;;14.60;99.90;14.90;96388.00;;;;5066596;28;20204;-72
2021/08/27 07:37:56;;;;;;;7.90;6.20;;;14.60;99.90;14.90;96399.00;;;;5061956;28;20293;-72
2021/08/27 07:40:45;;;;;;;7.90;6.23;;;14.60;99.90;15.00;96396.00;;;;5061853;28;20208;-72
2021/08/27 07:43:34;;;;;;;7.73;6.00;;;14.10;99.90;15.00;96391.00;;;;5064483;28;20216;-73
2021/08/27 07:46:23;;;;;;;7.47;5.97;;;14.70;99.90;15.00;96397.00;;;;5063567;28;20286;-72
2021/08/27 07:49:12;;;;;;;7.37;5.63;;;14.70;99.90;15.30;96403.00;;;;5066934;28;20255;-72
2021/08/27 07:52:03;;;;;;;7.87;5.90;;;14.80;99.90;15.40;96405.00;;;;5066756;28;20373;-73
2021/08/27 07:54:52;;;;;;;11.33;5.23;;;15.00;99.90;15.60;96406.00;;;;5067435;28;20294;-73
2021/08/27 07:57:43;;;;;;;11.73;6.47;;;15.00;99.90;15.90;96408.00;;;;5064408;28;20204;-73
2021/08/27 08:00:33;;;;;;;8.13;5.63;;;15.20;99.90;16.10;96419.00;;;;5065759;28;20221;-73
2021/08/27 08:03:22;;;;;;;4.90;4.17;;;15.40;99.90;16.30;96422.00;;;;5066665;28;20227;-73
2021/08/27 08:06:12;;;;;;;6.00;4.57;;;15.60;99.90;16.30;96416.00;;;;5064772;28;20408;-73
2021/08/27 08:09:13;;;;;;;5.93;4.60;;;15.70;99.90;16.50;96404.00;;;;5062414;28;20415;-72
2021/08/27 08:12:08;;;;;;;6.15;4.30;;;15.90;99.90;16.60;96420.00;;;;5062174;28;20406;-73
2021/08/27 08:15:04;;;;;;;5.77;4.27;;;16.00;99.90;16.60;96429.00;;;;5065550;28;20222;-74
2021/08/27 08:17:53;;;;;;;5.20;4.70;;;16.20;99.90;16.70;96427.00;;;;5061154;28;20290;-74
2021/08/27 08:20:43;;;;;;;4.57;4.17;;;16.20;99.90;16.80;96431.00;;;;5065341;28;20208;-74
2021/08/27 08:23:34;;;;;;;4.47;3.90;;;16.30;99.90;16.90;96430.00;;;;5064245;28;20442;-73
2021/08/27 08:26:25;;;;;;;5.10;4.10;;;16.40;99.90;17.10;96441.00;;;;5064736;28;20435;-74
2021/08/27 08:29:15;;;;;;;4.53;3.97;;;16.50;99.90;16.80;96434.00;;;;5066772;28;20268;-73
2021/08/27 08:32:06;;;;;;;6.13;3.83;;;16.50;99.90;17.00;96439.00;;;;5065509;28;20731;-73
2021/08/27 08:34:57;;;;;;;4.33;3.90;;;16.60;99.90;16.90;96443.00;;;;5062796;28;20497;-75
2021/08/27 08:37:46;;;;;;;5.17;4.07;;;16.60;99.90;16.90;96440.00;;;;5064882;28;20253;-73
2021/08/27 08:40:40;;;;;;;7.07;4.57;;;16.80;99.90;17.10;96438.00;;;;5064576;28;20200;-73
2021/08/27 08:43:31;;;;;;;4.33;3.77;;;16.60;99.90;17.80;96428.00;;;;5064050;28;20326;-74
2021/08/27 08:46:23;;;;;;;4.53;3.50;;;16.80;99.90;18.20;96439.00;;;;5064733;28;20208;-74
2021/08/27 08:49:14;;;;;;;3.80;3.40;;;17.10;99.90;18.50;96448.00;;;;5062826;28;20255;-73
2021/08/27 08:52:04;;;;;;;3.30;3.00;;;17.50;99.90;18.50;96460.00;;;;5058120;28;20608;-73
2021/08/27 08:54:54;;;;;;;6.63;3.20;;;17.70;99.90;18.60;96444.00;;;;5065071;28;20199;-73
2021/08/27 08:57:43;;;;;;;4.00;2.97;;;17.80;99.90;18.70;96446.00;;;;5059369;28;20593;-73
2021/08/27 09:00:34;;;;;;;3.87;2.87;;;18.00;99.90;18.90;96452.00;;;;5066351;28;20203;-73
2021/08/27 09:03:23;;;;;;;4.67;2.20;;;18.10;99.90;18.60;96452.00;;;;5065595;28;20227;-73
2021/08/27 09:06:12;;;;;;;1.87;1.77;;;18.20;99.90;18.80;96449.00;;;;5064409;28;20533;-73
2021/08/27 09:09:04;;;;;;;2.10;1.90;;;18.30;99.90;18.50;96448.00;;;;5068519;28;20204;-72
2021/08/27 09:11:53;;;;;;;2.30;1.87;;;18.20;99.90;18.80;96453.00;;;;5062974;28;22276;-72
2021/08/27 09:14:42;;;;;;;2.93;2.00;;;18.20;99.90;18.60;96448.00;;;;5065180;28;20200;-72
2021/08/27 09:17:56;;;;;;;3.33;1.87;;;18.20;99.90;18.70;96450.00;;;;5068821;28;20195;-72
2021/08/27 09:20:46;;;;;;;3.03;2.30;;;18.20;99.90;18.60;96452.00;;;;5065855;28;20245;-73
2021/08/27 09:23:35;;;;;;;1.23;0.90;;;18.20;99.90;18.50;96452.00;;;;5068226;28;20245;-72
2021/08/27 09:26:51;;;;;;;1.37;1.10;;;18.10;99.90;18.50;96451.00;;;;5063969;28;20211;-72
2021/08/27 09:29:43;;;;;;;1.37;0.93;;;18.10;99.90;18.60;96458.00;;;;5068756;28;20225;-72
2021/08/27 09:32:32;;;;;;;1.83;1.10;;;18.20;99.90;18.40;96452.00;;;;5067891;28;20229;-72
2021/08/27 09:35:25;;;;;;;1.87;1.53;;;19.30;99.90;18.80;96444.00;;;;5065857;28;20198;-72
2021/08/27 09:38:16;;;;;;;1.30;1.20;;;18.20;99.90;19.20;96436.00;;;;5065499;28;20582;-72
2021/08/27 09:41:08;;;;;;;2.67;1.33;;;18.30;99.90;19.50;96452.00;;;;5067617;28;20219;-71
2021/08/27 09:43:59;;;;;;;1.07;0.97;;;18.60;99.90;19.10;96443.00;;;;5067414;28;20352;-72
2021/08/27 09:46:48;;;;;;;1.03;0.80;;;18.70;99.90;19.20;96437.00;;;;5066681;28;20601;-72
2021/08/27 09:49:38;;;;;;;1.10;1.00;;;18.70;99.90;19.10;96433.00;;;;5068289;28;20292;-72
2021/08/27 09:52:29;;;;;;;1.10;1.00;;;18.70;99.90;19.40;96440.00;;;;5068071;28;20219;-72
2021/08/27 09:55:18;;;;;;;3.00;0.90;;;18.80;99.90;19.70;96447.00;;;;5071470;28;20272;-72
2021/08/27 09:58:10;;;;;;;1.57;1.10;;;19.00;99.90;19.80;96451.00;;;;5067092;28;20200;-72
2021/08/27 10:01:05;;;;;;;1.50;1.10;;;19.10;99.90;19.70;96452.00;;;;5067434;28;20289;-72
2021/08/27 10:04:07;;;;;;;0.93;0.73;;;18.60;99.90;20.10;96444.00;;;;5067166;28;20736;-71
2021/08/27 10:06:56;;;;;;;1.70;0.90;;;19.30;99.90;20.50;96467.00;;;;5067579;28;20211;-72
2021/08/27 10:09:47;;;;;;;0.93;0.83;;;19.60;99.90;19.70;96448.00;;;;5070975;28;20203;-72
2021/08/27 10:12:39;;;;;;;1.27;0.93;;;19.80;99.90;20.20;96456.00;;;;5068610;28;20514;-71
2021/08/27 10:15:28;;;;;;;1.50;1.30;;;19.80;99.90;19.80;96452.00;;;;5070675;28;20275;-70
2021/08/27 10:18:17;;;;;;;3.23;1.00;;;19.70;99.90;19.90;96449.00;;;;5068427;28;20578;-73
2021/08/27 10:21:08;;;;;;;1.03;0.97;;;19.60;99.90;20.10;96457.00;;;;5068762;28;20212;-72
2021/08/27 10:24:13;;;;;;;1.40;1.00;;;19.60;99.90;20.40;96448.00;;;;5065075;28;20297;-72
2021/08/27 10:27:10;;;;;;;2.97;1.73;;;19.70;99.90;20.60;96462.00;;;;5065904;28;20580;-72
2021/08/27 10:29:59;;;;;;;1.13;1.00;;;19.90;99.90;20.40;96468.00;;;;5069689;27;20707;-72
2021/08/27 10:32:50;;;;;;;1.60;1.07;;;19.90;99.90;20.40;96458.00;;;;5069762;28;20214;-72
2021/08/27 10:35:53;;;;;;;1.13;0.90;;;20.00;99.10;20.50;96456.00;;;;5069986;28;20813;-71
2021/08/27 10:38:45;;;;;;;0.80;0.80;;;20.00;98.10;20.40;96464.00;;;;5068039;28;20585;-71
2021/08/27 10:41:40;;;;;;;2.03;1.00;;;20.00;99.60;19.90;96451.00;;;;5068185;28;20223;-71
2021/08/27 10:44:50;;;;;;;2.00;0.70;;;19.80;96.90;20.00;96455.00;;;;5068665;28;20215;-71
2021/08/27 10:48:10;;;;;;;0.50;0.50;;;19.80;97.50;20.10;96448.00;;;;5070249;28;20210;-71
2021/08/27 10:50:59;;;;;;;1.30;0.90;;;19.80;96.30;20.20;96443.00;;;;5060703;28;20726;-70
2021/08/27 10:53:56;;;;;;;0.87;0.80;;;19.80;98.20;19.70;96446.00;;;;5059784;28;20337;-71
2021/08/27 10:56:50;;;;;;;1.30;1.20;;;19.60;96.10;20.20;96442.00;;;;5064237;28;20223;-70
2021/08/27 10:59:40;;;;;;;1.13;0.90;;;19.60;97.20;20.50;96419.00;;;;5065537;28;20253;-71
2021/08/27 11:02:53;;;;;;;1.33;0.97;;;19.80;96.50;21.30;96444.00;;;;5062166;28;20761;-70
2021/08/27 11:05:46;;;;;;;0.83;0.70;;;20.20;96.50;21.30;96454.00;;;;5065970;27;20235;-71
2021/08/27 11:08:35;;;;;;;1.00;0.73;;;20.40;96.40;21.00;96450.00;;;;5066187;28;20763;-70
2021/08/27 11:14:55;;;;;;;0.60;0.60;;;20.50;94.50;21.10;96442.00;;;;5068084;28;20199;-71
2021/08/27 11:18:13;;;;;;;1.43;0.80;;;20.60;93.50;20.10;96449.00;;;;5061931;28;20559;-72
2021/08/27 11:21:31;;;;;;;1.10;0.77;;;20.30;92.30;20.60;96420.00;;;;5067842;28;20231;-72
2021/08/27 11:24:22;;;;;;;0.70;0.70;;;20.10;92.90;21.10;96438.00;;;;5063238;28;20327;-71
2021/08/27 11:27:17;;;;;;;0.87;0.63;;;20.30;92.70;21.10;96445.00;;;;5066563;28;22638;-71
2021/08/27 11:30:31;;;;;;;0.87;0.73;;;20.40;93.30;20.60;96452.00;;;;5067574;28;20195;-70
2021/08/27 11:33:52;;;;;;;0.77;0.67;;;20.40;91.80;20.70;96443.00;;;;5065937;28;20211;-71
2021/08/27 11:36:42;;;;;;;0.67;0.67;;;20.30;91.00;21.00;96445.00;;;;5066108;28;20192;-72
2021/08/27 11:39:31;;;;;;;0.73;0.53;;;20.30;91.70;21.20;96447.00;;;;5065099;28;20214;-71
2021/08/27 11:42:29;;;;;;;0.83;0.60;;;20.50;92.00;22.70;96369.00;;;;5065193;28;20964;-71
2021/08/27 11:45:19;;;;;;;0.77;0.50;;;20.90;92.70;23.00;96417.00;;;;5064534;28;20222;-71
2021/08/27 11:48:11;;;;;;;0.90;0.75;;;21.50;89.70;21.80;96430.00;;;;5065954;28;20410;-71
2021/08/27 11:51:04;;;;;;;1.57;0.43;;;21.90;82.00;19.70;96427.00;;;;5061812;28;20225;-72
2021/08/27 11:53:53;;;;;;;0.83;0.50;;;21.40;75.80;19.40;96420.00;;;;5064522;28;20802;-72
2021/08/27 11:56:55;;;;;;;1.70;0.50;;;20.70;78.50;20.20;96416.00;;;;5066488;28;20340;-71
2021/08/27 11:59:44;;;;;;;0.47;0.30;;;20.30;77.10;19.80;96438.00;;;;5066735;28;20690;-70
2021/08/27 12:02:34;;;;;;;0.43;0.40;;;20.20;79.00;19.50;96440.00;;;;5065395;28;20229;-71
2021/08/27 12:05:24;;;;;;;1.90;0.40;;;19.80;79.90;19.70;96418.00;;;;5064042;28;20230;-71
2021/08/27 12:08:15;;;;;;;1.37;0.30;;;19.80;81.90;21.80;96438.00;;;;5065741;28;20759;-72
2021/08/27 12:11:07;;;;;;;0.73;0.40;;;20.20;85.10;21.50;96441.00;;;;5064396;28;20249;-71
2021/08/27 12:13:56;;;;;;;0.60;0.43;;;20.70;79.50;21.60;96443.00;;;;5063250;28;20211;-71
2021/08/27 12:16:59;;;;;;;2.73;0.73;;;20.90;77.50;21.20;96454.00;;;;5064185;28;20372;-71
2021/08/27 12:19:50;;;;;;;0.30;0.30;;;21.10;78.90;20.00;96457.00;;;;5067293;28;20622;-71
2021/08/27 12:22:45;;;;;;;0.43;0.30;;;20.80;76.60;19.40;96453.00;;;;5064385;28;20269;-72
2021/08/27 12:25:40;;;;;;;0.40;0.40;;;20.30;76.00;20.10;96469.00;;;;5066284;28;20588;-72
2021/08/27 12:28:43;;;;;;;0.50;0.47;;;20.10;78.00;20.60;96454.00;;;;5060554;28;20588;-72
2021/08/27 12:31:37;;;;;;;0.70;0.47;;;20.10;80.70;20.50;96459.00;;;;5066085;28;20603;-72
2021/08/27 12:34:31;;;;;;;0.30;0.30;;;20.10;81.90;20.80;96463.00;;;;5065731;28;20215;-72
2021/08/27 12:37:20;;;;;;;1.40;0.40;;;20.10;84.10;21.00;96457.00;;;;5067317;28;20450;-71
2021/08/27 12:40:13;;;;;;;0.83;0.40;;;20.30;84.60;21.10;96456.00;;;;5066237;28;20195;-71
2021/08/27 12:43:06;;;;;;;0.37;0.20;;;20.40;85.30;20.50;96454.00;;;;5063781;28;20211;-71
2021/08/27 12:45:57;;;;;;;0.23;0.20;;;20.50;80.20;19.80;96356.00;;;;5066917;28;20232;-70
2021/08/27 12:48:46;;;;;;;0.23;0.20;;;20.40;76.80;21.50;96438.00;;;;5062150;28;20203;-71
2021/08/27 12:51:41;;;;;;;1.90;0.40;;;20.60;73.70;22.00;96436.00;;;;5062579;28;20230;-70
2021/08/27 12:54:40;;;;;;;0.40;0.27;;;21.00;76.20;22.50;96354.00;;;;5054984;28;20230;-72
2021/08/27 12:57:48;;;;;;;0.30;0.30;;;21.50;72.90;22.90;96361.00;;;;5063004;28;20206;-71